createdAt,value
2023-02-15T00:02:06.147Z,99.90
2023-02-15T00:07:17.983Z,99.90
2023-02-15T00:12:26.827Z,99.90
2023-02-15T00:17:42.635Z,99.90
2023-02-15T00:22:47.529Z,99.90
2023-02-15T00:27:54.964Z,99.90
2023-02-15T00:32:59.158Z,99.90
2023-02-15T00:38:08.222Z,99.90
2023-02-15T00:43:14.195Z,99.90
2023-02-15T00:48:23.752Z,99.90
2023-02-15T00:53:30.019Z,99.90
2023-02-15T00:58:37.143Z,99.90
2023-02-15T01:03:43.717Z,99.90
2023-02-15T01:08:50.480Z,99.90
2023-02-15T01:13:56.572Z,99.90
2023-02-15T01:19:08.502Z,99.90
2023-02-15T01:24:17.706Z,99.90
2023-02-15T01:29:24.793Z,99.90
2023-02-15T01:34:35.876Z,99.90
2023-02-15T01:39:41.467Z,99.90
2023-02-15T01:44:51.050Z,99.90
2023-02-15T01:50:10.584Z,99.90
2023-02-15T01:55:16.135Z,99.90
2023-02-15T02:00:26.855Z,99.90
2023-02-15T02:05:33.562Z,99.90
2023-02-15T02:10:38.947Z,99.90
2023-02-15T02:15:49.561Z,99.90
2023-02-15T02:21:11.170Z,99.90
2023-02-15T02:26:41.457Z,99.90
2023-02-15T02:31:56.580Z,99.90
2023-02-15T02:37:08.977Z,99.90
2023-02-15T02:42:19.681Z,99.90
2023-02-15T02:47:28.544Z,99.90
2023-02-15T02:52:42.488Z,99.90
2023-02-15T02:57:54.002Z,99.90
2023-02-15T03:03:00.557Z,99.90
2023-02-15T03:08:10.748Z,99.90
2023-02-15T03:13:13.566Z,99.90
2023-02-15T03:18:18.745Z,99.90
2023-02-15T03:23:25.933Z,99.90
2023-02-15T03:28:35.116Z,99.90
2023-02-15T03:33:42.830Z,99.90
2023-02-15T03:38:51.951Z,99.90
2023-02-15T03:43:57.221Z,99.90
2023-02-15T03:49:09.955Z,99.90
2023-02-15T03:54:36.765Z,99.90
2023-02-15T03:59:57.213Z,99.90
2023-02-15T04:04:59.896Z,99.90
2023-02-15T04:10:21.840Z,99.90
2023-02-15T04:15:42.283Z,99.90
2023-02-15T04:21:03.453Z,99.90
2023-02-15T04:26:08.077Z,99.90
2023-02-15T04:31:10.943Z,99.90
2023-02-15T04:36:13.666Z,99.90
2023-02-15T04:41:17.690Z,99.90
2023-02-15T04:46:20.443Z,99.90
2023-02-15T04:51:23.199Z,99.90
2023-02-15T04:56:27.369Z,99.90
2023-02-15T05:01:30.061Z,99.90
2023-02-15T05:06:32.727Z,99.90
2023-02-15T05:11:36.732Z,99.90
2023-02-15T05:16:39.665Z,99.90
2023-02-15T05:21:42.369Z,99.90
2023-02-15T05:27:03.947Z,99.90
2023-02-15T05:32:06.908Z,99.90
2023-02-15T05:37:09.723Z,99.90
2023-02-15T05:42:13.735Z,99.90
2023-02-15T05:47:16.383Z,99.90
2023-02-15T05:52:19.208Z,99.90
2023-02-15T05:57:23.194Z,99.90
2023-02-15T06:02:25.857Z,99.90
2023-02-15T06:07:28.589Z,99.90
2023-02-15T06:12:32.649Z,99.90
2023-02-15T06:17:35.390Z,99.90
2023-02-15T06:22:38.375Z,99.90
2023-02-15T06:27:44.735Z,99.90
2023-02-15T06:32:47.389Z,99.90
2023-02-15T06:37:53.238Z,99.90
2023-02-15T06:42:57.233Z,99.90
2023-02-15T06:48:00.205Z,99.90
2023-02-15T06:53:02.989Z,99.90
2023-02-15T06:58:07.013Z,99.90
2023-02-15T07:03:09.926Z,99.90
2023-02-15T07:08:12.579Z,99.90
2023-02-15T07:13:16.557Z,99.90
2023-02-15T07:18:19.175Z,99.90
2023-02-15T07:23:21.849Z,99.90
2023-02-15T07:28:25.971Z,99.90
2023-02-15T07:33:29.852Z,99.90
2023-02-15T07:38:34.585Z,1.00
2023-02-15T07:43:40.380Z,1.00
2023-02-15T07:48:43.937Z,1.00
2023-02-15T07:53:47.945Z,1.00
2023-02-15T07:58:56.562Z,1.00
2023-02-15T08:03:59.821Z,83.90
2023-02-15T08:09:03.149Z,1.00
2023-02-15T08:14:09.596Z,99.90
2023-02-15T08:19:15.047Z,1.00
2023-02-15T08:24:21.692Z,1.00
2023-02-15T08:29:29.621Z,99.90
2023-02-15T08:34:35.955Z,99.90
2023-02-15T08:39:41.209Z,99.90
2023-02-15T08:44:48.533Z,1.00
2023-02-15T08:49:54.401Z,1.00
2023-02-15T08:54:58.718Z,1.00
2023-02-15T09:00:08.165Z,1.00
2023-02-15T09:05:12.120Z,1.00
2023-02-15T09:10:16.414Z,1.00
2023-02-15T09:15:25.939Z,1.00
2023-02-15T09:20:31.079Z,1.00
2023-02-15T09:25:36.331Z,1.00
2023-02-15T09:30:42.302Z,1.00
2023-02-15T09:35:47.163Z,1.00
2023-02-15T09:41:03.948Z,1.00
2023-02-15T09:46:34.769Z,1.00
2023-02-15T09:51:50.417Z,1.00
2023-02-15T09:57:01.004Z,1.00
2023-02-15T10:02:20.385Z,1.00
2023-02-15T10:07:42.949Z,99.90
2023-02-15T10:13:00.443Z,99.90
2023-02-15T10:18:22.863Z,99.90
2023-02-15T10:23:56.098Z,99.90
2023-02-15T10:29:04.733Z,99.90
2023-02-15T10:34:19.296Z,99.90
2023-02-15T10:39:32.451Z,99.90
2023-02-15T10:44:49.127Z,99.90
2023-02-15T10:50:08.499Z,99.90
2023-02-15T10:55:20.432Z,99.90
2023-02-15T11:00:32.035Z,99.90
2023-02-15T11:05:44.425Z,99.90
2023-02-15T11:10:52.482Z,99.90
2023-02-15T11:15:58.870Z,99.90
2023-02-15T11:21:05.813Z,99.90
2023-02-15T11:26:14.910Z,99.90
2023-02-15T11:31:21.028Z,99.90
2023-02-15T11:36:28.331Z,99.90
2023-02-15T11:41:38.183Z,99.90
2023-02-15T11:46:41.102Z,99.90
2023-02-15T11:51:45.838Z,99.90
2023-02-15T11:56:49.123Z,99.90
2023-02-15T12:01:52.993Z,99.90
2023-02-15T12:07:02.983Z,99.90
2023-02-15T12:12:27.997Z,99.90
2023-02-15T12:17:34.288Z,1.00
2023-02-15T12:22:48.036Z,99.90
2023-02-15T12:27:52.340Z,99.90
2023-02-15T12:33:00.828Z,99.90
2023-02-15T12:38:21.947Z,99.90
2023-02-15T12:43:29.608Z,99.90
2023-02-15T12:48:40.671Z,99.90
2023-02-15T12:53:45.938Z,99.90
2023-02-15T12:58:50.246Z,99.90
2023-02-15T13:04:00.143Z,99.90
2023-02-15T13:09:18.278Z,99.90
2023-02-15T13:14:24.150Z,99.90
2023-02-15T13:19:36.633Z,99.90
2023-02-15T13:24:48.198Z,99.90
2023-02-15T13:30:00.387Z,99.90
2023-02-15T13:35:06.672Z,99.90
2023-02-15T13:40:18.351Z,99.90
2023-02-15T13:45:39.139Z,99.90
2023-02-15T13:50:58.894Z,99.90
2023-02-15T13:56:10.407Z,99.90
2023-02-15T14:01:21.222Z,99.90
2023-02-15T14:06:48.496Z,99.90
2023-02-15T14:12:07.338Z,99.90
2023-02-15T14:17:22.650Z,99.90
2023-02-15T14:22:34.645Z,1.00
2023-02-15T14:27:53.322Z,1.00
2023-02-15T14:33:02.041Z,1.00
2023-02-15T14:38:15.489Z,1.00
2023-02-15T14:43:32.404Z,1.00
2023-02-15T14:48:43.674Z,1.00
2023-02-15T14:54:15.768Z,1.00
2023-02-15T14:59:31.142Z,1.00
2023-02-15T15:04:41.918Z,1.00
2023-02-15T15:15:58.955Z,1.00
2023-02-15T15:21:24.209Z,1.00
2023-02-15T15:26:36.982Z,1.00
2023-02-15T15:32:02.034Z,1.00
2023-02-15T15:37:55.851Z,99.90
2023-02-15T15:43:34.731Z,1.00
2023-02-15T15:48:40.026Z,99.90
2023-02-15T15:53:46.877Z,1.00
2023-02-15T15:58:54.237Z,1.00
2023-02-15T16:04:00.363Z,99.90
2023-02-15T16:09:19.853Z,99.90
2023-02-15T16:14:29.289Z,1.00
2023-02-15T16:19:36.704Z,1.00
2023-02-15T16:24:54.229Z,1.00
2023-02-15T16:29:56.973Z,96.50
2023-02-15T16:35:02.898Z,99.90
2023-02-15T16:40:06.543Z,99.90
2023-02-15T16:45:15.762Z,99.90
2023-02-15T16:50:22.414Z,99.90
2023-02-15T16:55:27.456Z,99.90
2023-02-15T17:00:34.039Z,1.00
2023-02-15T17:05:44.244Z,1.00
2023-02-15T17:17:15.000Z,1.00
2023-02-15T17:22:29.186Z,1.00
2023-02-15T17:27:35.990Z,1.00
2023-02-15T17:32:58.819Z,1.00
2023-02-15T17:38:41.460Z,1.00
2023-02-15T17:43:48.639Z,1.00
2023-02-15T17:48:53.434Z,1.00
2023-02-15T17:54:15.075Z,1.00
2023-02-15T17:59:17.708Z,1.00
2023-02-15T18:04:38.594Z,1.00
2023-02-15T18:10:00.265Z,1.00
2023-02-15T18:15:03.593Z,1.00
2023-02-15T18:20:17.922Z,1.00
2023-02-15T18:25:24.199Z,1.00
2023-02-15T18:30:28.264Z,1.00
2023-02-15T18:35:33.470Z,1.00
2023-02-15T18:40:37.463Z,1.00
2023-02-15T18:45:41.478Z,1.00
2023-02-15T18:50:44.239Z,1.00
2023-02-15T18:55:49.654Z,1.00
2023-02-15T20:17:09.136Z,16.20
2023-02-15T20:22:34.912Z,8.90
2023-02-15T20:27:38.063Z,1.00
2023-02-15T20:32:47.452Z,1.00
2023-02-15T20:38:04.452Z,8.70
2023-02-15T20:43:27.441Z,30.50
2023-02-15T20:48:36.834Z,1.00
2023-02-15T20:53:39.795Z,1.00
2023-02-15T20:59:11.909Z,1.00
2023-02-15T21:04:18.943Z,1.00
2023-02-15T21:09:21.668Z,1.00
2023-02-15T21:14:30.024Z,1.00
2023-02-15T21:19:34.066Z,1.00
2023-02-15T21:24:40.044Z,1.00
2023-02-15T21:29:42.829Z,1.00
2023-02-15T21:34:47.754Z,1.00
2023-02-15T21:39:50.428Z,1.00
2023-02-15T21:45:10.664Z,1.00
2023-02-15T21:50:34.339Z,1.00
2023-02-15T21:55:37.066Z,1.00
2023-02-15T22:00:39.761Z,1.00
2023-02-15T22:05:43.774Z,14.30
2023-02-15T22:10:47.976Z,26.20
2023-02-15T22:15:50.645Z,60.10
2023-02-15T22:21:03.891Z,58.90
2023-02-15T22:26:24.063Z,89.10
2023-02-15T22:31:40.035Z,87.80
2023-02-15T22:36:58.578Z,70.10
2023-02-15T22:42:05.396Z,64.00
2023-02-15T22:47:32.231Z,54.20
2023-02-15T22:53:04.296Z,40.80
2023-02-15T22:58:25.244Z,51.70
2023-02-15T23:03:50.782Z,66.80
2023-02-15T23:09:02.976Z,93.60
2023-02-15T23:14:33.735Z,99.90
2023-02-15T23:19:39.020Z,99.90
2023-02-15T23:24:47.911Z,99.90
2023-02-15T23:29:57.115Z,99.90
2023-02-15T23:35:07.587Z,99.90
2023-02-15T23:40:33.477Z,99.90
2023-02-15T23:45:40.131Z,99.90
2023-02-15T23:50:43.705Z,99.90
2023-02-15T23:55:47.936Z,99.90
